Time;durP1;ratioP1;P1;durP2;ratioP2;P2;SDS_P1;SDS_P2;PMS_P1;PMS_P2;Temp;Humidity;BMP_temperature;BMP_pressure;BME280_temperature;BME280_humidity;BME280_pressure;Samples;Min_cycle;Max_cycle;Signal;HPM_P1;HPM_P2
2022/08/19 00:01:13;;;;;;;24.90;18.80;;;;;;;;;;754176;186;628622;-60
2022/08/19 00:03:39;;;;;;;24.73;17.03;;;;;;;;;;755850;186;637152;-63
2022/08/19 00:06:05;;;;;;;21.20;16.80;;;;;;;;;;751388;186;617036;-63
2022/08/19 00:08:32;;;;;;;20.37;17.37;;;;;;;;;;748952;186;623531;-60
2022/08/19 00:10:57;;;;;;;20.40;17.97;;;;;;;;;;757083;186;617034;-64
2022/08/19 00:13:23;;;;;;;20.20;18.10;;;;;;;;;;748099;186;631979;-63
2022/08/19 00:15:49;;;;;;;20.90;17.27;;;;;;;;;;750964;186;636587;-63
2022/08/19 00:18:14;;;;;;;21.90;17.43;;;;;;;;;;750049;186;615024;-63
2022/08/19 00:20:40;;;;;;;17.43;15.63;;;;;;;;;;747085;186;629754;-61
2022/08/19 00:23:06;;;;;;;17.50;15.70;;;;;;;;;;749881;186;619069;-61
2022/08/19 00:25:32;;;;;;;17.73;15.93;;;;;;;;;;747016;186;619866;-61
2022/08/19 00:27:59;;;;;;;18.77;16.73;;;;;;;;;;754535;186;623420;-63
2022/08/19 00:30:24;;;;;;;19.87;17.77;;;;;;;;;;744325;186;619781;-61
2022/08/19 00:32:50;;;;;;;19.70;16.93;;;;;;;;;;751220;186;640587;-61
2022/08/19 00:35:17;;;;;;;22.30;16.73;;;;;;;;;;751956;186;625073;-62
2022/08/19 00:37:43;;;;;;;19.30;16.17;;;;;;;;;;753728;186;626401;-64
2022/08/19 00:40:07;;;;;;;19.07;16.93;;;;;;;;;;743559;187;637449;-62
2022/08/19 00:42:33;;;;;;;16.80;14.90;;;;;;;;;;749813;187;624288;-61
2022/08/19 00:44:59;;;;;;;18.67;16.70;;;;;;;;;;752653;184;623592;-62
2022/08/19 00:47:25;;;;;;;18.30;15.57;;;;;;;;;;746054;186;623604;-61
2022/08/19 00:49:51;;;;;;;21.83;16.83;;;;;;;;;;754517;186;618654;-64
2022/08/19 00:52:17;;;;;;;22.30;17.47;;;;;;;;;;758267;186;625471;-63
2022/08/19 00:54:42;;;;;;;18.90;16.90;;;;;;;;;;745463;187;637748;-61
2022/08/19 00:57:08;;;;;;;19.57;16.80;;;;;;;;;;750099;186;621295;-63
2022/08/19 00:59:34;;;;;;;19.90;16.10;;;;;;;;;;754027;184;617035;-63
2022/08/19 01:02:00;;;;;;;24.00;18.87;;;;;;;;;;753192;185;619105;-60
2022/08/19 01:04:26;;;;;;;25.30;17.93;;;;;;;;;;747030;187;615941;-60
2022/08/19 01:06:52;;;;;;;28.53;19.03;;;;;;;;;;747883;186;638821;-62
2022/08/19 01:09:17;;;;;;;20.67;17.10;;;;;;;;;;752092;186;632252;-62
2022/08/19 01:11:43;;;;;;;20.33;17.70;;;;;;;;;;754344;186;643080;-63
2022/08/19 01:14:09;;;;;;;19.77;17.00;;;;;;;;;;755704;186;626489;-63
2022/08/19 01:16:35;;;;;;;18.43;16.07;;;;;;;;;;757964;186;623964;-61
2022/08/19 01:19:01;;;;;;;19.23;17.13;;;;;;;;;;750197;186;635190;-61
2022/08/19 01:21:28;;;;;;;25.97;16.73;;;;;;;;;;749918;186;618134;-63
2022/08/19 01:23:53;;;;;;;24.57;17.17;;;;;;;;;;749756;186;617770;-61
2022/08/19 01:26:19;;;;;;;17.07;15.30;;;;;;;;;;746149;185;656749;-63
2022/08/19 01:28:45;;;;;;;19.03;15.30;;;;;;;;;;741327;187;636865;-61
2022/08/19 01:31:13;;;;;;;20.83;16.23;;;;;;;;;;755629;186;614615;-60
2022/08/19 01:33:39;;;;;;;16.47;14.77;;;;;;;;;;745428;187;617192;-63
2022/08/19 01:36:05;;;;;;;22.43;15.70;;;;;;;;;;746155;185;624610;-64
2022/08/19 01:38:31;;;;;;;15.87;13.60;;;;;;;;;;743787;186;632470;-61
2022/08/19 01:40:57;;;;;;;19.87;12.37;;;;;;;;;;751271;187;628543;-61
2022/08/19 01:43:22;;;;;;;12.27;9.97;;;;;;;;;;747911;186;616847;-63
2022/08/19 01:45:48;;;;;;;12.00;9.27;;;;;;;;;;752103;186;633509;-64
2022/08/19 01:48:14;;;;;;;16.53;9.40;;;;;;;;;;751013;186;619014;-64
2022/08/19 01:50:40;;;;;;;15.17;9.87;;;;;;;;;;747920;186;632802;-61
2022/08/19 01:53:06;;;;;;;13.53;8.47;;;;;;;;;;746446;186;639634;-64
2022/08/19 01:55:32;;;;;;;15.30;8.57;;;;;;;;;;752458;187;631114;-61
2022/08/19 01:57:57;;;;;;;12.53;8.40;;;;;;;;;;744137;187;639557;-60
2022/08/19 02:00:23;;;;;;;12.63;10.20;;;;;;;;;;740621;188;627269;-62
2022/08/19 02:02:49;;;;;;;10.83;8.10;;;;;;;;;;749264;187;648830;-62
2022/08/19 02:05:16;;;;;;;10.73;8.37;;;;;;;;;;749344;184;633243;-65
2022/08/19 02:07:41;;;;;;;10.77;7.53;;;;;;;;;;736440;188;638038;-66
2022/08/19 02:10:07;;;;;;;16.87;8.13;;;;;;;;;;746096;187;622679;-62
2022/08/19 02:12:33;;;;;;;13.57;8.23;;;;;;;;;;751718;186;635091;-62
2022/08/19 02:14:59;;;;;;;10.33;8.40;;;;;;;;;;754259;186;629261;-61
2022/08/19 02:17:25;;;;;;;9.77;7.60;;;;;;;;;;758775;185;632716;-62
2022/08/19 02:19:50;;;;;;;12.93;8.33;;;;;;;;;;758430;186;624370;-64
2022/08/19 02:22:16;;;;;;;13.20;8.10;;;;;;;;;;755735;186;624543;-64
2022/08/19 02:24:42;;;;;;;17.70;7.60;;;;;;;;;;748396;186;626328;-61
2022/08/19 02:27:08;;;;;;;11.23;8.03;;;;;;;;;;754068;186;637167;-64
2022/08/19 02:29:34;;;;;;;11.83;7.73;;;;;;;;;;744882;189;617121;-61
2022/08/19 02:32:00;;;;;;;11.97;8.53;;;;;;;;;;745699;186;633615;-61
2022/08/19 02:34:25;;;;;;;9.10;7.97;;;;;;;;;;747888;186;626548;-64
2022/08/19 02:36:51;;;;;;;15.27;7.40;;;;;;;;;;751505;186;626563;-63
2022/08/19 02:39:17;;;;;;;10.30;8.23;;;;;;;;;;753845;186;618982;-63
2022/08/19 02:41:43;;;;;;;13.47;8.63;;;;;;;;;;742075;186;627744;-61
2022/08/19 02:44:09;;;;;;;12.57;7.73;;;;;;;;;;748564;186;643795;-61
2022/08/19 02:46:35;;;;;;;11.97;8.13;;;;;;;;;;749511;186;618006;-66
2022/08/19 02:49:01;;;;;;;20.40;8.57;;;;;;;;;;751751;186;618918;-62
2022/08/19 02:51:26;;;;;;;11.67;8.27;;;;;;;;;;755997;187;629281;-61
2022/08/19 02:53:52;;;;;;;19.00;9.53;;;;;;;;;;743324;187;635092;-64
2022/08/19 02:56:18;;;;;;;17.47;9.30;;;;;;;;;;743575;187;624128;-61
2022/08/19 02:58:44;;;;;;;12.83;9.27;;;;;;;;;;747636;187;623095;-64
2022/08/19 03:01:10;;;;;;;14.30;10.93;;;;;;;;;;758488;186;617465;-62
2022/08/19 03:03:36;;;;;;;12.30;9.50;;;;;;;;;;754836;186;624973;-66
2022/08/19 03:06:12;;;;;;;11.57;9.60;;;;;;;;;;744552;186;622825;-61
2022/08/19 03:08:37;;;;;;;12.27;8.10;;;;;;;;;;753466;186;653446;-62
2022/08/19 03:11:03;;;;;;;13.97;8.90;;;;;;;;;;745613;187;624146;-61
2022/08/19 03:13:29;;;;;;;11.33;8.50;;;;;;;;;;746273;186;629860;-66
2022/08/19 03:15:54;;;;;;;12.83;9.50;;;;;;;;;;751156;186;626321;-64
2022/08/19 03:18:20;;;;;;;17.57;10.70;;;;;;;;;;761821;185;624659;-64
2022/08/19 03:20:46;;;;;;;13.53;10.07;;;;;;;;;;753569;186;633789;-61
2022/08/19 03:23:12;;;;;;;15.23;9.80;;;;;;;;;;753978;184;617279;-63
2022/08/19 03:25:40;;;;;;;17.50;9.00;;;;;;;;;;757991;185;623678;-64
2022/08/19 03:28:04;;;;;;;16.17;10.07;;;;;;;;;;745695;187;629132;-61
2022/08/19 03:30:30;;;;;;;18.53;9.30;;;;;;;;;;749139;186;632208;-64
2022/08/19 03:32:56;;;;;;;13.50;8.80;;;;;;;;;;751290;186;629049;-63
2022/08/19 03:35:22;;;;;;;12.30;9.00;;;;;;;;;;747145;186;627159;-61
2022/08/19 03:37:48;;;;;;;13.70;10.00;;;;;;;;;;751483;186;618153;-61
2022/08/19 03:40:13;;;;;;;10.53;8.83;;;;;;;;;;749356;186;635831;-61
2022/08/19 03:42:42;;;;;;;14.33;10.63;;;;;;;;;;747964;186;626997;-64
2022/08/19 03:45:07;;;;;;;15.73;8.83;;;;;;;;;;749227;186;637258;-61
2022/08/19 03:47:32;;;;;;;11.17;8.90;;;;;;;;;;750569;186;623358;-64
2022/08/19 03:49:57;;;;;;;11.87;9.23;;;;;;;;;;758069;186;624519;-63
2022/08/19 03:52:23;;;;;;;16.60;10.40;;;;;;;;;;751933;186;635558;-61
2022/08/19 03:54:49;;;;;;;12.13;10.03;;;;;;;;;;751570;186;621348;-64
2022/08/19 03:57:15;;;;;;;11.40;9.75;;;;;;;;;;751779;186;637474;-62
2022/08/19 03:59:41;;;;;;;10.30;9.13;;;;;;;;;;748974;186;608936;-64
2022/08/19 04:02:08;;;;;;;19.20;10.70;;;;;;;;;;749460;186;618297;-61
2022/08/19 04:04:33;;;;;;;13.80;9.80;;;;;;;;;;749341;186;625905;-64
2022/08/19 04:06:59;;;;;;;12.20;10.00;;;;;;;;;;753398;186;623464;-60
2022/08/19 04:09:25;;;;;;;17.43;10.33;;;;;;;;;;747627;186;635317;-63
2022/08/19 04:11:53;;;;;;;12.10;9.80;;;;;;;;;;745928;186;632076;-61
2022/08/19 04:14:16;;;;;;;15.03;10.43;;;;;;;;;;750827;186;630182;-63
2022/08/19 04:16:44;;;;;;;14.27;9.10;;;;;;;;;;751634;186;637093;-63
2022/08/19 04:19:08;;;;;;;15.80;10.30;;;;;;;;;;747246;186;634045;-62
2022/08/19 04:21:34;;;;;;;23.50;10.40;;;;;;;;;;753359;186;617152;-63
2022/08/19 04:24:00;;;;;;;17.03;11.90;;;;;;;;;;745803;186;642215;-63
2022/08/19 04:26:25;;;;;;;25.23;10.30;;;;;;;;;;746203;187;621207;-60
2022/08/19 04:28:51;;;;;;;21.40;11.60;;;;;;;;;;749112;186;629334;-60
2022/08/19 04:31:17;;;;;;;21.60;12.57;;;;;;;;;;754480;186;619063;-60
2022/08/19 04:33:43;;;;;;;18.00;11.47;;;;;;;;;;751516;186;618388;-60
2022/08/19 04:36:09;;;;;;;14.73;10.10;;;;;;;;;;752005;186;639257;-60
2022/08/19 04:38:35;;;;;;;14.07;11.40;;;;;;;;;;754394;186;635357;-62
2022/08/19 04:43:32;;;;;;;14.93;10.73;;;;;;;;;;749447;186;661877;-62
2022/08/19 04:45:58;;;;;;;15.40;11.60;;;;;;;;;;749505;186;636814;-60
2022/08/19 04:48:26;;;;;;;14.03;8.87;;;;;;;;;;756868;186;637134;-62
2022/08/19 04:50:53;;;;;;;17.47;10.07;;;;;;;;;;741754;187;634364;-60
2022/08/19 04:53:17;;;;;;;19.33;10.37;;;;;;;;;;753253;186;628303;-63
2022/08/19 04:55:43;;;;;;;14.43;9.60;;;;;;;;;;755050;186;644541;-60
2022/08/19 04:58:09;;;;;;;41.97;30.80;;;;;;;;;;746957;186;620644;-62
2022/08/19 05:00:35;;;;;;;24.90;17.80;;;;;;;;;;752174;186;642951;-60
2022/08/19 05:03:02;;;;;;;22.53;18.40;;;;;;;;;;755024;186;622583;-60
2022/08/19 05:05:27;;;;;;;22.20;14.17;;;;;;;;;;739821;189;627945;-61
2022/08/19 05:07:53;;;;;;;17.07;12.80;;;;;;;;;;747521;187;624255;-60
2022/08/19 05:10:19;;;;;;;35.30;12.90;;;;;;;;;;743818;187;622122;-60
2022/08/19 05:12:44;;;;;;;21.43;10.43;;;;;;;;;;752895;187;640305;-63
2022/08/19 05:15:10;;;;;;;14.27;10.97;;;;;;;;;;748997;187;617374;-60
2022/08/19 05:17:36;;;;;;;15.07;11.13;;;;;;;;;;744773;186;626833;-60
2022/08/19 05:22:35;;;;;;;15.13;10.27;;;;;;;;;;746804;186;625110;-60
2022/08/19 05:25:01;;;;;;;23.00;9.83;;;;;;;;;;753829;186;631573;-61
2022/08/19 05:27:27;;;;;;;14.47;11.57;;;;;;;;;;742848;186;630487;-60
2022/08/19 05:29:53;;;;;;;19.07;10.90;;;;;;;;;;757598;186;628398;-60
2022/08/19 05:32:19;;;;;;;15.07;10.80;;;;;;;;;;754975;186;636383;-63
2022/08/19 05:34:44;;;;;;;13.20;11.27;;;;;;;;;;749186;186;626986;-64
2022/08/19 05:37:10;;;;;;;15.03;10.53;;;;;;;;;;758192;186;614776;-65
2022/08/19 05:39:36;;;;;;;16.73;11.40;;;;;;;;;;752257;186;627430;-61
2022/08/19 05:42:02;;;;;;;13.50;11.40;;;;;;;;;;749196;185;705843;-64
2022/08/19 05:44:31;;;;;;;19.70;12.30;;;;;;;;;;746846;186;628032;-64
2022/08/19 05:46:54;;;;;;;31.03;11.00;;;;;;;;;;747380;183;624478;-61
2022/08/19 05:49:19;;;;;;;18.90;10.40;;;;;;;;;;756281;186;635817;-61
2022/08/19 05:51:45;;;;;;;14.13;11.67;;;;;;;;;;747578;186;648108;-61
2022/08/19 05:54:13;;;;;;;26.17;10.70;;;;;;;;;;757750;186;631254;-64
2022/08/19 05:56:37;;;;;;;22.97;10.60;;;;;;;;;;746860;186;622857;-65
2022/08/19 05:59:03;;;;;;;12.60;9.93;;;;;;;;;;747438;186;621836;-61
2022/08/19 06:01:29;;;;;;;22.20;11.03;;;;;;;;;;751401;186;630779;-64
2022/08/19 06:03:55;;;;;;;20.77;10.63;;;;;;;;;;745773;186;626087;-61
2022/08/19 06:06:20;;;;;;;18.87;10.50;;;;;;;;;;750175;186;635124;-61
2022/08/19 06:08:50;;;;;;;15.37;11.63;;;;;;;;;;756105;186;627110;-61
2022/08/19 06:11:18;;;;;;;20.57;9.80;;;;;;;;;;750473;186;630998;-61
2022/08/19 06:13:44;;;;;;;12.80;10.87;;;;;;;;;;749684;186;630458;-61
2022/08/19 06:16:09;;;;;;;16.43;12.50;;;;;;;;;;747478;186;634744;-61
2022/08/19 06:18:35;;;;;;;13.77;10.80;;;;;;;;;;746999;187;618999;-64
2022/08/19 06:21:03;;;;;;;15.93;11.33;;;;;;;;;;754207;186;634431;-61
2022/08/19 06:23:27;;;;;;;12.47;10.80;;;;;;;;;;748712;187;631085;-61
2022/08/19 06:25:53;;;;;;;13.33;10.67;;;;;;;;;;754442;186;620029;-65
2022/08/19 06:28:19;;;;;;;14.33;11.20;;;;;;;;;;744716;187;630883;-61
2022/08/19 06:30:44;;;;;;;13.93;10.87;;;;;;;;;;748184;187;616094;-64
2022/08/19 06:33:10;;;;;;;14.80;11.40;;;;;;;;;;749050;186;632397;-61
2022/08/19 06:35:39;;;;;;;14.60;10.50;;;;;;;;;;747045;188;638938;-66
2022/08/19 06:38:05;;;;;;;20.60;11.83;;;;;;;;;;746437;187;636666;-64
2022/08/19 06:40:31;;;;;;;15.77;11.43;;;;;;;;;;747968;185;619087;-65
2022/08/19 06:42:58;;;;;;;14.53;10.97;;;;;;;;;;751766;187;617499;-64
2022/08/19 06:45:22;;;;;;;14.97;9.90;;;;;;;;;;749561;185;617112;-61
2022/08/19 06:47:48;;;;;;;14.70;11.37;;;;;;;;;;747714;186;626889;-61
2022/08/19 06:50:14;;;;;;;12.00;9.13;;;;;;;;;;749740;185;632553;-61
2022/08/19 06:52:40;;;;;;;14.77;10.43;;;;;;;;;;742455;186;630050;-61
2022/08/19 06:55:06;;;;;;;12.23;10.07;;;;;;;;;;753074;186;622235;-65
2022/08/19 06:57:32;;;;;;;14.53;9.40;;;;;;;;;;746609;186;632630;-65
2022/08/19 06:59:59;;;;;;;15.10;11.57;;;;;;;;;;750619;186;626181;-62
2022/08/19 07:02:26;;;;;;;13.00;10.27;;;;;;;;;;753503;186;629827;-66
2022/08/19 07:04:50;;;;;;;11.90;10.17;;;;;;;;;;749329;186;625255;-61
2022/08/19 07:07:15;;;;;;;17.50;10.30;;;;;;;;;;751615;186;629208;-65
2022/08/19 07:09:41;;;;;;;12.57;10.50;;;;;;;;;;749374;186;634809;-61
2022/08/19 07:12:07;;;;;;;11.50;9.90;;;;;;;;;;749964;186;633444;-65
2022/08/19 07:14:36;;;;;;;14.30;10.10;;;;;;;;;;754090;186;617971;-66
2022/08/19 07:16:59;;;;;;;15.23;10.37;;;;;;;;;;740805;189;638139;-61
2022/08/19 07:19:26;;;;;;;10.60;9.50;;;;;;;;;;746431;186;635494;-61
2022/08/19 07:21:52;;;;;;;10.60;9.50;;;;;;;;;;748759;186;628976;-62
2022/08/19 07:24:16;;;;;;;12.10;9.57;;;;;;;;;;748857;186;622163;-61
2022/08/19 07:26:42;;;;;;;13.17;10.33;;;;;;;;;;747656;186;633747;-65
2022/08/19 07:29:08;;;;;;;14.00;9.03;;;;;;;;;;750635;186;614416;-61
2022/08/19 07:31:36;;;;;;;14.67;9.97;;;;;;;;;;753720;186;619356;-66
2022/08/19 07:34:01;;;;;;;16.00;9.80;;;;;;;;;;751105;186;620086;-65
2022/08/19 07:36:31;;;;;;;11.90;9.03;;;;;;;;;;747826;186;631251;-65
2022/08/19 07:38:54;;;;;;;15.43;9.10;;;;;;;;;;755042;186;618956;-61
2022/08/19 07:41:18;;;;;;;17.77;9.10;;;;;;;;;;750316;186;628788;-66
2022/08/19 07:43:45;;;;;;;16.00;10.37;;;;;;;;;;750580;186;638221;-65
2022/08/19 07:46:11;;;;;;;15.82;10.40;;;;;;;;;;751650;183;631060;-63
2022/08/19 07:48:36;;;;;;;23.13;10.30;;;;;;;;;;747242;186;630316;-65
2022/08/19 07:51:02;;;;;;;14.17;9.50;;;;;;;;;;749298;186;618696;-61
2022/08/19 07:53:28;;;;;;;12.57;10.50;;;;;;;;;;749450;186;624317;-66
2022/08/19 07:55:54;;;;;;;14.67;10.70;;;;;;;;;;755111;186;621001;-66
2022/08/19 07:58:20;;;;;;;14.77;10.67;;;;;;;;;;750631;186;628714;-67
2022/08/19 08:00:45;;;;;;;17.10;11.07;;;;;;;;;;751392;183;630906;-66
2022/08/19 08:03:11;;;;;;;10.03;8.93;;;;;;;;;;752383;186;617508;-61
2022/08/19 08:10:40;;;;;;;12.80;10.17;;;;;;;;;;746132;186;632644;-66
2022/08/19 08:13:06;;;;;;;11.30;10.20;;;;;;;;;;753419;186;629882;-67
2022/08/19 08:15:32;;;;;;;14.67;9.30;;;;;;;;;;749728;186;643558;-66
2022/08/19 08:17:58;;;;;;;15.07;11.13;;;;;;;;;;750486;186;641904;-62
2022/08/19 08:20:24;;;;;;;12.43;9.50;;;;;;;;;;753687;185;619101;-66
2022/08/19 08:25:22;;;;;;;14.63;9.63;;;;;;;;;;748020;186;626717;-67
2022/08/19 08:27:47;;;;;;;18.10;10.47;;;;;;;;;;750200;186;628596;-66
2022/08/19 08:30:14;;;;;;;16.03;9.30;;;;;;;;;;749149;186;619730;-62
2022/08/19 08:32:39;;;;;;;12.60;9.17;;;;;;;;;;749754;186;629099;-67
2022/08/19 08:35:06;;;;;;;11.67;9.13;;;;;;;;;;746581;186;625770;-66
2022/08/19 08:37:31;;;;;;;13.93;10.60;;;;;;;;;;755420;186;617200;-63
2022/08/19 08:39:57;;;;;;;14.10;10.03;;;;;;;;;;753096;183;618720;-62
2022/08/19 08:42:26;;;;;;;12.10;9.57;;;;;;;;;;747550;186;629761;-62
2022/08/19 08:44:52;;;;;;;11.17;8.97;;;;;;;;;;752690;186;624861;-62
2022/08/19 08:47:18;;;;;;;20.43;9.80;;;;;;;;;;751372;186;615760;-66
2022/08/19 08:49:45;;;;;;;14.33;10.20;;;;;;;;;;745233;187;622976;-62
2022/08/19 08:52:12;;;;;;;13.50;9.40;;;;;;;;;;745199;187;619954;-66
2022/08/19 08:54:37;;;;;;;15.03;9.17;;;;;;;;;;753965;186;624842;-62
2022/08/19 08:57:03;;;;;;;13.47;9.43;;;;;;;;;;747773;186;630909;-62
2022/08/19 08:59:32;;;;;;;14.63;10.27;;;;;;;;;;751964;186;617039;-62
2022/08/19 09:01:57;;;;;;;12.47;10.13;;;;;;;;;;748220;187;624925;-65
2022/08/19 09:04:22;;;;;;;19.47;10.60;;;;;;;;;;749413;188;622401;-63
2022/08/19 09:06:49;;;;;;;18.70;8.70;;;;;;;;;;745802;186;617476;-63
2022/08/19 09:09:17;;;;;;;17.60;10.40;;;;;;;;;;745905;186;632858;-62
2022/08/19 09:11:48;;;;;;;14.93;10.20;;;;;;;;;;748526;187;631073;-62
2022/08/19 09:14:16;;;;;;;12.73;9.90;;;;;;;;;;754313;186;625068;-65
2022/08/19 09:16:42;;;;;;;13.73;10.13;;;;;;;;;;744152;187;631925;-65
2022/08/19 09:19:08;;;;;;;11.73;10.20;;;;;;;;;;752324;186;627937;-65
2022/08/19 09:21:34;;;;;;;17.17;10.10;;;;;;;;;;757255;186;615878;-62
2022/08/19 09:23:59;;;;;;;16.53;9.83;;;;;;;;;;753857;186;623631;-65
2022/08/19 09:26:26;;;;;;;18.27;10.00;;;;;;;;;;752145;186;628497;-65
2022/08/19 09:28:52;;;;;;;19.70;11.03;;;;;;;;;;752944;186;630711;-62
2022/08/19 09:31:17;;;;;;;14.60;9.83;;;;;;;;;;751658;186;634017;-64
2022/08/19 09:33:44;;;;;;;13.33;9.83;;;;;;;;;;750999;186;628283;-66
2022/08/19 09:36:10;;;;;;;15.00;9.60;;;;;;;;;;753210;186;637850;-63
2022/08/19 09:38:36;;;;;;;20.43;10.67;;;;;;;;;;751953;186;628187;-65
2022/08/19 09:41:02;;;;;;;16.13;10.20;;;;;;;;;;748734;186;664936;-64
2022/08/19 09:43:28;;;;;;;13.67;9.97;;;;;;;;;;749798;186;623285;-62
2022/08/19 09:45:54;;;;;;;17.13;9.90;;;;;;;;;;754801;186;769005;-62
2022/08/19 09:48:21;;;;;;;13.00;10.30;;;;;;;;;;748254;186;637081;-62
2022/08/19 09:50:45;;;;;;;12.20;9.90;;;;;;;;;;747062;186;626519;-66
2022/08/19 09:53:11;;;;;;;13.97;8.90;;;;;;;;;;753349;186;629856;-63
2022/08/19 09:55:37;;;;;;;18.07;9.70;;;;;;;;;;749602;184;629931;-65
2022/08/19 09:58:03;;;;;;;14.87;10.27;;;;;;;;;;751072;186;633179;-62
2022/08/19 10:00:30;;;;;;;10.67;9.47;;;;;;;;;;751577;186;619701;-67
2022/08/19 10:02:55;;;;;;;16.07;9.10;;;;;;;;;;745665;186;625767;-63
2022/08/19 10:07:52;;;;;;;15.47;7.60;;;;;;;;;;750263;185;623240;-63
2022/08/19 10:10:18;;;;;;;14.33;10.23;;;;;;;;;;753515;186;623401;-66
2022/08/19 10:12:47;;;;;;;16.00;9.70;;;;;;;;;;747419;187;617055;-63
2022/08/19 10:15:10;;;;;;;11.83;8.67;;;;;;;;;;745150;186;617031;-65
2022/08/19 10:17:36;;;;;;;13.23;8.40;;;;;;;;;;750192;187;624841;-62
2022/08/19 10:20:04;;;;;;;11.23;8.90;;;;;;;;;;742255;190;630041;-66
2022/08/19 10:22:28;;;;;;;11.53;9.40;;;;;;;;;;749691;186;626266;-65
2022/08/19 10:24:53;;;;;;;11.00;8.07;;;;;;;;;;749421;186;639987;-65
2022/08/19 10:27:19;;;;;;;19.47;9.20;;;;;;;;;;746219;187;634580;-65
2022/08/19 10:29:45;;;;;;;18.87;8.43;;;;;;;;;;748607;187;641437;-64
2022/08/19 10:32:11;;;;;;;14.47;8.70;;;;;;;;;;741977;186;624945;-65
2022/08/19 10:34:37;;;;;;;14.23;8.70;;;;;;;;;;755871;186;614951;-62
2022/08/19 10:37:04;;;;;;;11.87;10.10;;;;;;;;;;754410;185;626947;-66
2022/08/19 10:39:29;;;;;;;15.87;8.40;;;;;;;;;;751659;186;619528;-62
2022/08/19 10:41:55;;;;;;;15.50;9.23;;;;;;;;;;755744;186;634246;-62
2022/08/19 10:44:21;;;;;;;12.57;8.93;;;;;;;;;;750534;186;616989;-62
2022/08/19 10:46:46;;;;;;;9.53;8.20;;;;;;;;;;746617;186;636221;-62
2022/08/19 10:49:13;;;;;;;10.67;8.57;;;;;;;;;;750481;186;630335;-64
2022/08/19 10:54:11;;;;;;;17.90;8.60;;;;;;;;;;749694;186;633235;-61
2022/08/19 10:59:08;;;;;;;10.70;8.00;;;;;;;;;;746121;186;619354;-65
2022/08/19 11:01:34;;;;;;;14.33;8.93;;;;;;;;;;754917;186;616698;-63
2022/08/19 11:04:01;;;;;;;12.73;8.13;;;;;;;;;;748912;186;629293;-62
2022/08/19 11:06:26;;;;;;;14.67;8.33;;;;;;;;;;751254;186;618766;-63
2022/08/19 11:08:52;;;;;;;12.80;8.10;;;;;;;;;;753948;186;627546;-65
2022/08/19 11:11:18;;;;;;;16.07;8.60;;;;;;;;;;749210;183;623011;-65
2022/08/19 11:13:45;;;;;;;10.63;8.30;;;;;;;;;;748251;186;627284;-65
2022/08/19 11:16:10;;;;;;;14.37;8.60;;;;;;;;;;749296;186;633768;-60
2022/08/19 11:18:36;;;;;;;9.90;7.73;;;;;;;;;;754959;186;623915;-64
2022/08/19 11:21:05;;;;;;;11.23;8.20;;;;;;;;;;750037;186;621231;-61
2022/08/19 11:23:30;;;;;;;10.90;8.10;;;;;;;;;;749249;186;633465;-64
2022/08/19 11:25:56;;;;;;;9.57;8.60;;;;;;;;;;751419;186;626952;-60
2022/08/19 11:28:22;;;;;;;12.50;8.97;;;;;;;;;;750952;186;615202;-61
2022/08/19 11:30:48;;;;;;;12.63;7.67;;;;;;;;;;748793;186;629714;-64
2022/08/19 11:33:14;;;;;;;13.37;9.07;;;;;;;;;;756761;186;634071;-61
2022/08/19 11:35:40;;;;;;;9.67;7.77;;;;;;;;;;750915;186;620099;-61
2022/08/19 11:38:05;;;;;;;13.43;8.30;;;;;;;;;;751379;186;632961;-61
2022/08/19 11:40:32;;;;;;;8.77;7.70;;;;;;;;;;751915;183;640511;-61
2022/08/19 11:42:58;;;;;;;10.70;8.00;;;;;;;;;;742153;187;627118;-61
2022/08/19 11:45:23;;;;;;;12.13;8.30;;;;;;;;;;746568;186;627639;-66
2022/08/19 11:47:49;;;;;;;11.00;8.90;;;;;;;;;;748260;186;619224;-64
2022/08/19 11:50:15;;;;;;;9.30;7.87;;;;;;;;;;756914;186;635211;-62
2022/08/19 11:52:40;;;;;;;11.03;9.00;;;;;;;;;;748767;186;624753;-66
2022/08/19 11:55:07;;;;;;;11.60;8.50;;;;;;;;;;744964;186;620237;-65
2022/08/19 11:57:33;;;;;;;14.40;8.70;;;;;;;;;;753066;186;629609;-65
2022/08/19 11:59:59;;;;;;;11.50;7.60;;;;;;;;;;748933;183;629131;-62
2022/08/19 12:02:25;;;;;;;10.97;8.17;;;;;;;;;;754012;186;629403;-62
2022/08/19 12:04:50;;;;;;;10.87;7.50;;;;;;;;;;749627;183;629280;-64
2022/08/19 12:07:16;;;;;;;15.30;8.13;;;;;;;;;;741924;187;633263;-64
2022/08/19 12:09:42;;;;;;;14.03;8.70;;;;;;;;;;749084;186;622186;-62
2022/08/19 12:12:08;;;;;;;13.27;8.30;;;;;;;;;;748400;186;641878;-62
2022/08/19 12:14:34;;;;;;;14.30;9.17;;;;;;;;;;753990;186;629996;-64
2022/08/19 12:17:00;;;;;;;9.40;8.13;;;;;;;;;;749044;183;640592;-61
2022/08/19 12:19:25;;;;;;;14.37;8.90;;;;;;;;;;750662;186;621124;-61
2022/08/19 12:21:52;;;;;;;13.60;8.13;;;;;;;;;;753728;186;621929;-64
2022/08/19 12:24:22;;;;;;;11.90;8.50;;;;;;;;;;751900;186;622249;-64
2022/08/19 12:26:43;;;;;;;9.00;7.50;;;;;;;;;;746800;186;616924;-61
2022/08/19 12:29:09;;;;;;;10.87;8.97;;;;;;;;;;744046;190;625440;-60
2022/08/19 12:31:35;;;;;;;9.00;6.97;;;;;;;;;;750939;186;635727;-62
2022/08/19 12:34:02;;;;;;;10.70;7.93;;;;;;;;;;746264;187;626475;-60
2022/08/19 12:36:26;;;;;;;16.40;8.23;;;;;;;;;;746437;186;628653;-62
2022/08/19 12:38:52;;;;;;;12.70;7.73;;;;;;;;;;752235;186;625849;-63
2022/08/19 12:41:18;;;;;;;12.20;8.07;;;;;;;;;;748398;186;624376;-64
2022/08/19 12:43:44;;;;;;;11.83;7.97;;;;;;;;;;746580;187;623550;-61
2022/08/19 12:46:10;;;;;;;15.30;8.23;;;;;;;;;;751560;186;630957;-63
2022/08/19 12:48:36;;;;;;;13.37;10.87;;;;;;;;;;749010;186;636780;-61
2022/08/19 12:51:05;;;;;;;11.70;7.73;;;;;;;;;;750200;186;629941;-65
2022/08/19 12:53:31;;;;;;;15.57;7.40;;;;;;;;;;751542;186;625106;-64
2022/08/19 12:55:59;;;;;;;8.70;7.70;;;;;;;;;;746525;186;625956;-64
2022/08/19 12:58:24;;;;;;;9.73;7.63;;;;;;;;;;749741;186;628015;-65
2022/08/19 13:00:50;;;;;;;12.80;8.03;;;;;;;;;;749594;186;637982;-62
2022/08/19 13:03:15;;;;;;;14.80;8.33;;;;;;;;;;755575;186;627001;-68
2022/08/19 13:05:41;;;;;;;8.97;7.00;;;;;;;;;;744989;187;623238;-62
2022/08/19 13:08:07;;;;;;;10.30;7.70;;;;;;;;;;751720;186;634649;-64
2022/08/19 13:10:34;;;;;;;16.43;7.27;;;;;;;;;;750215;186;624256;-64
2022/08/19 13:13:01;;;;;;;12.90;7.10;;;;;;;;;;740533;187;634528;-63
2022/08/19 13:15:28;;;;;;;10.70;6.70;;;;;;;;;;750988;183;619717;-64
2022/08/19 13:17:51;;;;;;;11.20;7.20;;;;;;;;;;753107;186;626734;-66
2022/08/19 13:20:18;;;;;;;17.03;7.33;;;;;;;;;;747442;187;622413;-63
2022/08/19 13:22:44;;;;;;;12.10;7.00;;;;;;;;;;754796;186;630080;-63
2022/08/19 13:25:09;;;;;;;10.43;6.67;;;;;;;;;;744378;186;630631;-63
2022/08/19 13:27:35;;;;;;;8.73;6.70;;;;;;;;;;755767;185;625777;-63
2022/08/19 13:35:04;;;;;;;11.13;5.97;;;;;;;;;;752824;183;630158;-62
2022/08/19 13:40:01;;;;;;;11.13;6.23;;;;;;;;;;750329;185;629778;-63
2022/08/19 13:42:29;;;;;;;23.67;6.60;;;;;;;;;;750949;186;634135;-63
2022/08/19 13:44:53;;;;;;;18.00;6.87;;;;;;;;;;749227;185;626321;-63
2022/08/19 13:47:20;;;;;;;12.03;6.67;;;;;;;;;;743605;190;631802;-63
2022/08/19 13:49:45;;;;;;;13.03;5.67;;;;;;;;;;747469;187;619226;-61
2022/08/19 13:52:11;;;;;;;11.20;6.20;;;;;;;;;;750712;186;626369;-64
2022/08/19 13:54:36;;;;;;;16.80;6.53;;;;;;;;;;754041;186;626097;-65
2022/08/19 13:57:02;;;;;;;14.20;6.90;;;;;;;;;;750935;186;633928;-63
2022/08/19 13:59:28;;;;;;;17.23;6.93;;;;;;;;;;749188;186;635213;-63
2022/08/19 14:01:54;;;;;;;14.40;6.73;;;;;;;;;;754513;185;630458;-63
2022/08/19 14:04:20;;;;;;;11.07;6.10;;;;;;;;;;751461;186;627880;-63
2022/08/19 14:06:46;;;;;;;14.20;6.90;;;;;;;;;;751718;186;644090;-64
2022/08/19 14:09:12;;;;;;;14.67;6.47;;;;;;;;;;755913;186;622125;-63
2022/08/19 14:11:37;;;;;;;14.20;7.13;;;;;;;;;;746053;186;623450;-65
2022/08/19 14:14:03;;;;;;;12.63;6.80;;;;;;;;;;751577;186;630160;-61
2022/08/19 14:16:30;;;;;;;14.20;6.70;;;;;;;;;;750054;186;629022;-63
2022/08/19 14:18:55;;;;;;;14.10;6.73;;;;;;;;;;757181;186;633766;-62
2022/08/19 14:21:23;;;;;;;9.03;5.50;;;;;;;;;;744395;186;623183;-62
2022/08/19 14:23:47;;;;;;;10.63;6.10;;;;;;;;;;751784;186;633853;-63
2022/08/19 14:26:13;;;;;;;10.07;6.30;;;;;;;;;;753189;186;620333;-62
2022/08/19 14:28:40;;;;;;;8.93;6.43;;;;;;;;;;750322;186;643781;-67
2022/08/19 14:31:04;;;;;;;12.53;7.20;;;;;;;;;;750569;186;631209;-61